sensor_id;sensor_type;location;lat;lon;timestamp;pressure;altitude;pressure_sealevel;temperature;humidity
12077;BME280;12420;42.676;23.262;2023-03-04T00:01:50;94600.78;;;6.33;100.00
12077;BME280;12420;42.676;23.262;2023-03-04T00:04:18;94609.78;;;6.44;100.00
12077;BME280;12420;42.676;23.262;2023-03-04T00:06:45;94599.03;;;6.58;100.00
12077;BME280;12420;42.676;23.262;2023-03-04T00:09:12;94584.53;;;6.12;100.00
12077;BME280;12420;42.676;23.262;2023-03-04T00:11:39;94576.78;;;6.56;100.00
12077;BME280;12420;42.676;23.262;2023-03-04T00:14:06;94607.50;;;6.71;100.00
12077;BME280;12420;42.676;23.262;2023-03-04T00:16:33;94598.03;;;6.72;100.00
12077;BME280;12420;42.676;23.262;2023-03-04T00:18:59;94592.00;;;6.68;100.00
12077;BME280;12420;42.676;23.262;2023-03-04T00:21:28;94582.53;;;6.52;100.00
12077;BME280;12420;42.676;23.262;2023-03-04T00:23:54;94565.03;;;6.38;100.00
12077;BME280;12420;42.676;23.262;2023-03-04T00:26:21;94584.25;;;6.72;100.00
12077;BME280;12420;42.676;23.262;2023-03-04T00:28:48;94581.75;;;6.74;100.00
12077;BME280;12420;42.676;23.262;2023-03-04T00:31:15;94579.00;;;6.68;100.00
12077;BME280;12420;42.676;23.262;2023-03-04T00:33:42;94532.31;;;6.35;100.00
12077;BME280;12420;42.676;23.262;2023-03-04T00:36:09;94578.03;;;6.49;100.00
12077;BME280;12420;42.676;23.262;2023-03-04T00:38:37;94587.25;;;6.74;100.00
12077;BME280;12420;42.676;23.262;2023-03-04T00:41:04;94489.84;;;6.19;100.00
12077;BME280;12420;42.676;23.262;2023-03-04T00:43:31;94443.41;;;5.81;100.00
12077;BME280;12420;42.676;23.262;2023-03-04T00:45:58;94588.75;;;6.81;100.00
12077;BME280;12420;42.676;23.262;2023-03-04T00:48:25;94588.28;;;6.60;100.00
12077;BME280;12420;42.676;23.262;2023-03-04T00:50:52;94522.28;;;6.48;100.00
12077;BME280;12420;42.676;23.262;2023-03-04T00:53:19;94587.97;;;6.91;100.00
12077;BME280;12420;42.676;23.262;2023-03-04T00:55:47;94524.00;;;6.68;100.00
12077;BME280;12420;42.676;23.262;2023-03-04T00:58:14;94569.69;;;7.00;100.00
12077;BME280;12420;42.676;23.262;2023-03-04T01:00:40;94581.91;;;7.15;100.00
12077;BME280;12420;42.676;23.262;2023-03-04T01:03:07;94554.97;;;6.86;100.00
12077;BME280;12420;42.676;23.262;2023-03-04T01:05:34;94586.69;;;7.04;100.00
12077;BME280;12420;42.676;23.262;2023-03-04T01:08:01;94597.69;;;7.04;100.00
12077;BME280;12420;42.676;23.262;2023-03-04T01:10:28;94568.72;;;6.91;100.00
12077;BME280;12420;42.676;23.262;2023-03-04T01:12:56;94580.72;;;6.88;100.00
12077;BME280;12420;42.676;23.262;2023-03-04T01:15:23;94574.97;;;6.86;100.00
12077;BME280;12420;42.676;23.262;2023-03-04T01:17:50;94570.72;;;6.85;100.00
12077;BME280;12420;42.676;23.262;2023-03-04T01:20:17;94564.25;;;6.66;100.00
12077;BME280;12420;42.676;23.262;2023-03-04T01:22:44;94475.59;;;6.20;100.00
12077;BME280;12420;42.676;23.262;2023-03-04T01:25:11;94569.47;;;6.86;100.00
12077;BME280;12420;42.676;23.262;2023-03-04T01:27:37;94566.19;;;6.93;100.00
12077;BME280;12420;42.676;23.262;2023-03-04T01:30:07;94528.50;;;6.66;100.00
12077;BME280;12420;42.676;23.262;2023-03-04T01:32:34;94527.81;;;6.37;100.00
12077;BME280;12420;42.676;23.262;2023-03-04T01:35:01;94565.78;;;6.67;100.00
12077;BME280;12420;42.676;23.262;2023-03-04T01:37:28;94554.78;;;6.56;100.00
12077;BME280;12420;42.676;23.262;2023-03-04T01:39:55;94558.81;;;6.49;100.00
12077;BME280;12420;42.676;23.262;2023-03-04T01:42:23;94530.06;;;6.11;100.00
12077;BME280;12420;42.676;23.262;2023-03-04T01:44:51;94543.31;;;6.29;100.00
12077;BME280;12420;42.676;23.262;2023-03-04T01:47:21;94519.09;;;5.94;100.00
12077;BME280;12420;42.676;23.262;2023-03-04T01:49:52;94530.09;;;6.16;100.00
12077;BME280;12420;42.676;23.262;2023-03-04T01:52:20;94511.78;;;5.85;100.00
12077;BME280;12420;42.676;23.262;2023-03-04T01:54:47;94496.09;;;5.91;100.00
12077;BME280;12420;42.676;23.262;2023-03-04T01:57:19;94534.81;;;6.10;100.00
12077;BME280;12420;42.676;23.262;2023-03-04T01:59:47;94533.84;;;6.13;100.00
12077;BME280;12420;42.676;23.262;2023-03-04T02:02:35;94533.81;;;6.19;100.00
12077;BME280;12420;42.676;23.262;2023-03-04T02:05:01;94534.81;;;6.27;100.00
12077;BME280;12420;42.676;23.262;2023-03-04T02:07:28;94515.09;;;5.95;100.00
12077;BME280;12420;42.676;23.262;2023-03-04T02:09:55;94468.09;;;5.93;100.00
12077;BME280;12420;42.676;23.262;2023-03-04T02:12:22;94531.81;;;6.36;100.00
12077;BME280;12420;42.676;23.262;2023-03-04T02:14:48;94550.03;;;6.50;100.00
12077;BME280;12420;42.676;23.262;2023-03-04T02:17:15;94527.03;;;6.48;100.00
12077;BME280;12420;42.676;23.262;2023-03-04T02:19:50;94428.91;;;5.92;100.00
12077;BME280;12420;42.676;23.262;2023-03-04T02:22:20;94526.25;;;6.70;100.00
12077;BME280;12420;42.676;23.262;2023-03-04T02:24:50;94433.16;;;6.10;100.00
12077;BME280;12420;42.676;23.262;2023-03-04T02:27:21;94532.22;;;6.74;100.00
12077;BME280;12420;42.676;23.262;2023-03-04T02:29:48;94528.72;;;6.73;100.00
12077;BME280;12420;42.676;23.262;2023-03-04T02:32:15;94512.81;;;6.49;100.00
12077;BME280;12420;42.676;23.262;2023-03-04T02:34:46;94523.50;;;6.59;100.00
12077;BME280;12420;42.676;23.262;2023-03-04T02:37:14;94501.34;;;6.34;100.00
12077;BME280;12420;42.676;23.262;2023-03-04T02:39:44;94529.25;;;6.66;100.00
12077;BME280;12420;42.676;23.262;2023-03-04T02:42:11;94523.28;;;6.62;100.00
12077;BME280;12420;42.676;23.262;2023-03-04T02:44:41;94516.03;;;6.59;100.00
12077;BME280;12420;42.676;23.262;2023-03-04T02:47:11;94516.03;;;6.65;100.00
12077;BME280;12420;42.676;23.262;2023-03-04T02:49:39;94438.66;;;6.10;100.00
12077;BME280;12420;42.676;23.262;2023-03-04T02:52:08;94484.09;;;6.28;100.00
12077;BME280;12420;42.676;23.262;2023-03-04T02:54:37;94500.81;;;6.30;100.00
12077;BME280;12420;42.676;23.262;2023-03-04T02:57:05;94515.84;;;6.23;100.00
12077;BME280;12420;42.676;23.262;2023-03-04T02:59:34;94522.31;;;6.20;100.00
12077;BME280;12420;42.676;23.262;2023-03-04T03:02:03;94510.81;;;6.27;100.00
12077;BME280;12420;42.676;23.262;2023-03-04T03:04:30;94484.88;;;6.12;100.00
12077;BME280;12420;42.676;23.262;2023-03-04T03:06:58;94456.91;;;5.96;100.00
12077;BME280;12420;42.676;23.262;2023-03-04T03:09:25;94489.09;;;6.24;100.00
12077;BME280;12420;42.676;23.262;2023-03-04T03:11:51;94508.31;;;6.41;100.00
12077;BME280;12420;42.676;23.262;2023-03-04T03:14:18;94433.41;;;5.84;100.00
12077;BME280;12420;42.676;23.262;2023-03-04T03:16:45;94529.03;;;6.53;100.00
12077;BME280;12420;42.676;23.262;2023-03-04T03:19:13;94517.78;;;6.62;100.00
12077;BME280;12420;42.676;23.262;2023-03-04T03:21:40;94516.03;;;6.65;100.00
12077;BME280;12420;42.676;23.262;2023-03-04T03:24:07;94518.50;;;6.68;100.00
12077;BME280;12420;42.676;23.262;2023-03-04T03:26:34;94518.75;;;6.70;100.00
12077;BME280;12420;42.676;23.262;2023-03-04T03:29:00;94496.28;;;6.55;100.00
12077;BME280;12420;42.676;23.262;2023-03-04T03:31:27;94520.25;;;6.77;100.00
12077;BME280;12420;42.676;23.262;2023-03-04T03:33:54;94507.75;;;6.65;100.00
12077;BME280;12420;42.676;23.262;2023-03-04T03:36:22;94519.00;;;6.72;100.00
12077;BME280;12420;42.676;23.262;2023-03-04T03:38:49;94515.00;;;6.68;100.00
12077;BME280;12420;42.676;23.262;2023-03-04T03:41:16;94462.38;;;6.19;100.00
12077;BME280;12420;42.676;23.262;2023-03-04T03:43:42;94511.00;;;6.69;100.00
12077;BME280;12420;42.676;23.262;2023-03-04T03:46:09;94503.50;;;6.64;100.00
12077;BME280;12420;42.676;23.262;2023-03-04T03:48:36;94508.50;;;6.71;100.00
12077;BME280;12420;42.676;23.262;2023-03-04T03:51:03;94427.41;;;6.14;100.00
12077;BME280;12420;42.676;23.262;2023-03-04T03:53:31;94509.75;;;6.70;100.00
12077;BME280;12420;42.676;23.262;2023-03-04T03:55:58;94502.25;;;6.70;100.00
12077;BME280;12420;42.676;23.262;2023-03-04T03:58:24;94506.25;;;6.64;100.00
12077;BME280;12420;42.676;23.262;2023-03-04T04:00:52;94487.59;;;6.34;100.00
12077;BME280;12420;42.676;23.262;2023-03-04T04:03:19;94503.81;;;6.43;100.00
12077;BME280;12420;42.676;23.262;2023-03-04T04:05:46;94492.31;;;6.28;100.00
12077;BME280;12420;42.676;23.262;2023-03-04T04:08:13;94477.13;;;6.04;100.00
12077;BME280;12420;42.676;23.262;2023-03-04T04:10:42;94487.84;;;6.25;100.00
12077;BME280;12420;42.676;23.262;2023-03-04T04:13:09;94377.00;;;5.43;100.00
12077;BME280;12420;42.676;23.262;2023-03-04T04:15:37;94468.16;;;5.98;100.00
12077;BME280;12420;42.676;23.262;2023-03-04T04:18:04;94497.34;;;6.01;100.00
12077;BME280;12420;42.676;23.262;2023-03-04T04:20:31;94489.13;;;5.96;100.00
12077;BME280;12420;42.676;23.262;2023-03-04T04:22:57;94409.66;;;4.96;100.00
12077;BME280;12420;42.676;23.262;2023-03-04T04:25:24;94447.88;;;5.62;100.00
12077;BME280;12420;42.676;23.262;2023-03-04T04:27:55;94485.59;;;5.95;100.00
12077;BME280;12420;42.676;23.262;2023-03-04T04:30:21;94484.84;;;5.89;100.00
12077;BME280;12420;42.676;23.262;2023-03-04T04:32:48;94421.94;;;5.35;100.00
12077;BME280;12420;42.676;23.262;2023-03-04T04:35:15;94491.09;;;5.95;100.00
12077;BME280;12420;42.676;23.262;2023-03-04T04:37:42;94359.03;;;5.03;100.00
12077;BME280;12420;42.676;23.262;2023-03-04T04:40:10;94472.84;;;5.47;100.00
12077;BME280;12420;42.676;23.262;2023-03-04T04:42:37;94443.88;;;5.35;100.00
12077;BME280;12420;42.676;23.262;2023-03-04T04:45:07;94461.34;;;5.49;100.00
12077;BME280;12420;42.676;23.262;2023-03-04T04:47:34;94486.56;;;5.70;100.00
12077;BME280;12420;42.676;23.262;2023-03-04T04:50:01;94450.84;;;5.36;100.00
12077;BME280;12420;42.676;23.262;2023-03-04T04:52:29;94488.56;;;5.63;100.00
12077;BME280;12420;42.676;23.262;2023-03-04T04:54:55;94537.25;;;5.57;100.00
12077;BME280;12420;42.676;23.262;2023-03-04T04:57:23;94497.03;;;5.32;100.00
12077;BME280;12420;42.676;23.262;2023-03-04T04:59:50;94524.94;;;5.25;100.00
12077;BME280;12420;42.676;23.262;2023-03-04T05:02:18;94500.50;;;5.32;100.00
12077;BME280;12420;42.676;23.262;2023-03-04T05:04:45;94503.50;;;5.34;100.00
12077;BME280;12420;42.676;23.262;2023-03-04T05:07:12;94510.22;;;5.28;100.00
12077;BME280;12420;42.676;23.262;2023-03-04T05:09:38;94513.22;;;5.30;100.00
12077;BME280;12420;42.676;23.262;2023-03-04T05:12:05;94513.22;;;5.30;100.00
12077;BME280;12420;42.676;23.262;2023-03-04T05:14:32;94515.72;;;5.28;100.00
12077;BME280;12420;42.676;23.262;2023-03-04T05:16:59;94517.72;;;5.27;100.00
12077;BME280;12420;42.676;23.262;2023-03-04T05:19:27;94516.19;;;5.20;100.00
12077;BME280;12420;42.676;23.262;2023-03-04T05:21:54;94486.72;;;5.04;100.00
12077;BME280;12420;42.676;23.262;2023-03-04T05:24:20;94512.69;;;5.26;100.00
12077;BME280;12420;42.676;23.262;2023-03-04T05:26:47;94508.44;;;5.19;100.00
12077;BME280;12420;42.676;23.262;2023-03-04T05:29:14;94531.19;;;5.31;100.00
12077;BME280;12420;42.676;23.262;2023-03-04T05:31:41;94509.97;;;5.26;100.00
12077;BME280;12420;42.676;23.262;2023-03-04T05:34:08;94533.66;;;5.29;100.00
12077;BME280;12420;42.676;23.262;2023-03-04T05:36:36;94531.44;;;5.38;100.00
12077;BME280;12420;42.676;23.262;2023-03-04T05:39:03;94515.50;;;5.37;100.00
12077;BME280;12420;42.676;23.262;2023-03-04T05:41:30;94519.72;;;5.38;100.00
12077;BME280;12420;42.676;23.262;2023-03-04T05:43:56;94528.22;;;5.51;100.00
12077;BME280;12420;42.676;23.262;2023-03-04T05:46:23;94507.72;;;5.24;100.00
12077;BME280;12420;42.676;23.262;2023-03-04T05:48:51;94504.25;;;5.35;100.00
12077;BME280;12420;42.676;23.262;2023-03-04T05:51:18;94550.22;;;5.62;100.00
12077;BME280;12420;42.676;23.262;2023-03-04T05:53:46;94544.94;;;5.48;100.00
12077;BME280;12420;42.676;23.262;2023-03-04T05:56:16;94452.03;;;5.01;100.00
12077;BME280;12420;42.676;23.262;2023-03-04T05:58:44;94516.78;;;5.53;100.00
12077;BME280;12420;42.676;23.262;2023-03-04T06:01:12;94544.25;;;5.70;100.00
12077;BME280;12420;42.676;23.262;2023-03-04T06:03:39;94545.00;;;5.81;100.00
12077;BME280;12420;42.676;23.262;2023-03-04T06:06:07;94552.78;;;5.94;100.00
12077;BME280;12420;42.676;23.262;2023-03-04T06:08:34;94524.53;;;5.82;100.00
12077;BME280;12420;42.676;23.262;2023-03-04T06:11:04;94544.06;;;5.96;100.00
12077;BME280;12420;42.676;23.262;2023-03-04T06:13:31;94556.28;;;6.23;100.00
12077;BME280;12420;42.676;23.262;2023-03-04T06:15:59;94550.56;;;6.32;100.00
12077;BME280;12420;42.676;23.262;2023-03-04T06:18:26;94567.28;;;6.40;100.00
12077;BME280;12420;42.676;23.262;2023-03-04T06:20:55;94532.56;;;6.25;100.00
12077;BME280;12420;42.676;23.262;2023-03-04T06:23:23;94546.03;;;6.40;100.00
12077;BME280;12420;42.676;23.262;2023-03-04T06:25:51;94551.25;;;6.61;100.00
12077;BME280;12420;42.676;23.262;2023-03-04T06:28:20;94542.75;;;6.59;100.00
12077;BME280;12420;42.676;23.262;2023-03-04T06:30:47;94587.25;;;6.85;100.00
12077;BME280;12420;42.676;23.262;2023-03-04T06:33:36;94517.50;;;6.66;100.00
12077;BME280;12420;42.676;23.262;2023-03-04T06:36:06;94569.66;;;7.11;100.00
12077;BME280;12420;42.676;23.262;2023-03-04T06:38:40;94543.69;;;6.95;100.00
12077;BME280;12420;42.676;23.262;2023-03-04T06:41:08;94567.84;;;7.25;100.00
12077;BME280;12420;42.676;23.262;2023-03-04T06:43:37;94570.84;;;7.27;100.00
12077;BME280;12420;42.676;23.262;2023-03-04T06:46:04;94495.72;;;6.85;100.00
12077;BME280;12420;42.676;23.262;2023-03-04T06:48:31;94541.38;;;7.16;100.00
12077;BME280;12420;42.676;23.262;2023-03-04T06:50:57;94564.81;;;7.34;100.00
12077;BME280;12420;42.676;23.262;2023-03-04T06:53:24;94581.97;;;7.57;100.00
12077;BME280;12420;42.676;23.262;2023-03-04T06:55:51;94545.56;;;7.28;100.00
12077;BME280;12420;42.676;23.262;2023-03-04T06:58:18;94565.75;;;7.48;100.00
12077;BME280;12420;42.676;23.262;2023-03-04T07:00:46;94566.00;;;7.50;100.00
12077;BME280;12420;42.676;23.262;2023-03-04T07:03:13;94595.94;;;7.70;100.00
12077;BME280;12420;42.676;23.262;2023-03-04T07:05:41;94589.75;;;7.58;100.00
12077;BME280;12420;42.676;23.262;2023-03-04T07:08:08;94565.78;;;7.42;100.00
12077;BME280;12420;42.676;23.262;2023-03-04T07:10:35;94603.53;;;7.53;100.00
12077;BME280;12420;42.676;23.262;2023-03-04T07:13:02;94591.75;;;7.52;100.00
12077;BME280;12420;42.676;23.262;2023-03-04T07:15:29;94565.59;;;7.29;100.00
12077;BME280;12420;42.676;23.262;2023-03-04T07:17:57;94597.25;;;7.64;100.00
12077;BME280;12420;42.676;23.262;2023-03-04T07:20:24;94494.66;;;6.93;100.00
12077;BME280;12420;42.676;23.262;2023-03-04T07:22:51;94594.59;;;7.30;100.00
12077;BME280;12420;42.676;23.262;2023-03-04T07:25:18;94590.53;;;7.48;100.00
12077;BME280;12420;42.676;23.262;2023-03-04T07:27:45;94575.97;;;7.53;100.00
12077;BME280;12420;42.676;23.262;2023-03-04T07:30:12;94562.53;;;7.44;100.00
12077;BME280;12420;42.676;23.262;2023-03-04T07:32:39;94600.97;;;7.66;100.00
12077;BME280;12420;42.676;23.262;2023-03-04T07:35:08;94580.91;;;7.18;100.00
12077;BME280;12420;42.676;23.262;2023-03-04T07:37:35;94594.97;;;7.62;100.00
12077;BME280;12420;42.676;23.262;2023-03-04T07:40:02;94589.81;;;7.42;100.00
12077;BME280;12420;42.676;23.262;2023-03-04T07:42:29;94589.53;;;7.51;100.00
12077;BME280;12420;42.676;23.262;2023-03-04T07:44:56;94596.00;;;7.59;100.00
12077;BME280;12420;42.676;23.262;2023-03-04T07:47:24;94568.06;;;7.32;100.00
12077;BME280;12420;42.676;23.262;2023-03-04T07:49:51;94589.72;;;7.64;100.00
12077;BME280;12420;42.676;23.262;2023-03-04T07:52:19;94511.19;;;6.93;100.00
12077;BME280;12420;42.676;23.262;2023-03-04T07:54:46;94543.09;;;7.19;100.00
12077;BME280;12420;42.676;23.262;2023-03-04T07:57:12;94584.25;;;7.58;100.00
12077;BME280;12420;42.676;23.262;2023-03-04T07:59:39;94580.00;;;7.52;100.00
12077;BME280;12420;42.676;23.262;2023-03-04T08:02:06;94551.31;;;7.30;100.00
12077;BME280;12420;42.676;23.262;2023-03-04T08:04:34;94545.50;;;7.39;100.00
12077;BME280;12420;42.676;23.262;2023-03-04T08:07:01;94587.72;;;7.65;100.00
12077;BME280;12420;42.676;23.262;2023-03-04T08:09:29;94553.94;;;7.53;100.00
12077;BME280;12420;42.676;23.262;2023-03-04T08:11:56;94582.91;;;7.76;100.00
12077;BME280;12420;42.676;23.262;2023-03-04T08:14:23;94480.91;;;6.93;100.00
12077;BME280;12420;42.676;23.262;2023-03-04T08:16:50;94468.41;;;6.87;100.00
12077;BME280;12420;42.676;23.262;2023-03-04T08:19:17;94584.25;;;7.58;100.00
12077;BME280;12420;42.676;23.262;2023-03-04T08:21:43;94604.03;;;7.57;100.00
12077;BME280;12420;42.676;23.262;2023-03-04T08:24:11;94570.03;;;7.37;100.00
12077;BME280;12420;42.676;23.262;2023-03-04T08:26:41;94588.19;;;7.63;100.00
12077;BME280;12420;42.676;23.262;2023-03-04T08:29:12;94580.94;;;7.66;100.00
12077;BME280;12420;42.676;23.262;2023-03-04T08:31:39;94567.47;;;7.56;100.00
12077;BME280;12420;42.676;23.262;2023-03-04T08:34:06;94542.50;;;7.37;100.00
12077;BME280;12420;42.676;23.262;2023-03-04T08:36:35;94567.00;;;7.47;100.00
12077;BME280;12420;42.676;23.262;2023-03-04T08:39:03;94585.97;;;7.61;100.00
12077;BME280;12420;42.676;23.262;2023-03-04T08:41:31;94559.44;;;7.00;100.00
12077;BME280;12420;42.676;23.262;2023-03-04T08:44:01;94523.09;;;7.18;100.00
12077;BME280;12420;42.676;23.262;2023-03-04T08:46:28;94582.63;;;7.80;100.00
12077;BME280;12420;42.676;23.262;2023-03-04T08:48:55;94577.91;;;7.69;100.00
12077;BME280;12420;42.676;23.262;2023-03-04T08:51:22;94515.19;;;7.51;100.00
12077;BME280;12420;42.676;23.262;2023-03-04T08:53:49;94580.34;;;7.84;100.00
12077;BME280;12420;42.676;23.262;2023-03-04T08:56:16;94610.38;;;7.88;100.00
12077;BME280;12420;42.676;23.262;2023-03-04T08:58:43;94569.78;;;7.94;100.00
12077;BME280;12420;42.676;23.262;2023-03-04T09:01:12;94576.94;;;8.08;100.00
12077;BME280;12420;42.676;23.262;2023-03-04T09:03:40;94512.94;;;7.49;100.00
12077;BME280;12420;42.676;23.262;2023-03-04T09:06:08;94571.59;;;8.52;100.00
12077;BME280;12420;42.676;23.262;2023-03-04T09:08:37;94601.06;;;8.68;100.00
12077;BME280;12420;42.676;23.262;2023-03-04T09:11:04;94595.06;;;8.94;100.00
12077;BME280;12420;42.676;23.262;2023-03-04T09:13:31;94575.84;;;9.07;100.00
12077;BME280;12420;42.676;23.262;2023-03-04T09:15:59;94493.97;;;8.42;100.00
12077;BME280;12420;42.676;23.262;2023-03-04T09:18:27;94513.72;;;8.95;100.00
12077;BME280;12420;42.676;23.262;2023-03-04T09:20:54;94558.59;;;9.45;100.00
12077;BME280;12420;42.676;23.262;2023-03-04T09:23:21;94478.00;;;8.84;100.00
12077;BME280;12420;42.676;23.262;2023-03-04T09:25:48;94558.22;;;9.10;100.00
12077;BME280;12420;42.676;23.262;2023-03-04T09:28:16;94524.44;;;9.04;100.00
12077;BME280;12420;42.676;23.262;2023-03-04T09:30:43;94527.53;;;8.95;100.00
12077;BME280;12420;42.676;23.262;2023-03-04T09:33:11;94465.56;;;8.47;100.00
12077;BME280;12420;42.676;23.262;2023-03-04T09:35:40;94416.25;;;8.13;100.00
12077;BME280;12420;42.676;23.262;2023-03-04T09:38:07;94513.06;;;8.64;100.00
12077;BME280;12420;42.676;23.262;2023-03-04T09:40:39;94555.91;;;9.39;100.00
12077;BME280;12420;42.676;23.262;2023-03-04T09:43:12;94545.75;;;9.47;100.00
12077;BME280;12420;42.676;23.262;2023-03-04T09:45:47;94474.09;;;8.74;100.00
12077;BME280;12420;42.676;23.262;2023-03-04T09:48:17;94540.19;;;9.28;100.00
12077;BME280;12420;42.676;23.262;2023-03-04T09:50:57;94540.09;;;9.40;100.00
12077;BME280;12420;42.676;23.262;2023-03-04T09:53:33;94542.69;;;9.51;100.00
12077;BME280;12420;42.676;23.262;2023-03-04T09:56:01;94542.94;;;9.72;100.00
12077;BME280;12420;42.676;23.262;2023-03-04T09:58:41;94527.25;;;9.42;100.00
12077;BME280;12420;42.676;23.262;2023-03-04T10:01:16;94538.38;;;9.37;100.00
12077;BME280;12420;42.676;23.262;2023-03-04T10:03:47;94532.69;;;9.29;100.00
12077;BME280;12420;42.676;23.262;2023-03-04T10:06:19;94534.53;;;9.21;100.00
12077;BME280;12420;42.676;23.262;2023-03-04T10:08:51;94467.34;;;8.94;100.00
12077;BME280;12420;42.676;23.262;2023-03-04T10:11:23;94526.56;;;9.55;100.00
12077;BME280;12420;42.676;23.262;2023-03-04T10:14:03;94524.84;;;9.71;100.00
12077;BME280;12420;42.676;23.262;2023-03-04T10:16:34;94528.56;;;9.92;100.00
12077;BME280;12420;42.676;23.262;2023-03-04T10:19:20;94517.66;;;10.00;100.00
12077;BME280;12420;42.676;23.262;2023-03-04T10:21:50;94438.63;;;9.40;100.00
12077;BME280;12420;42.676;23.262;2023-03-04T10:24:19;94480.03;;;9.78;100.00
12077;BME280;12420;42.676;23.262;2023-03-04T10:26:52;94506.78;;;9.70;100.00
12077;BME280;12420;42.676;23.262;2023-03-04T10:29:22;94487.81;;;9.61;100.00
12077;BME280;12420;42.676;23.262;2023-03-04T10:31:49;94501.31;;;9.83;100.00
12077;BME280;12420;42.676;23.262;2023-03-04T10:34:16;94514.81;;;9.87;100.00
12077;BME280;12420;42.676;23.262;2023-03-04T10:37:06;94500.63;;;9.96;100.00
12077;BME280;12420;42.676;23.262;2023-03-04T10:39:36;94499.25;;;10.03;100.00
12077;BME280;12420;42.676;23.262;2023-03-04T10:42:05;94412.94;;;9.45;100.00
12077;BME280;12420;42.676;23.262;2023-03-04T10:44:33;94442.53;;;9.64;100.00
12077;BME280;12420;42.676;23.262;2023-03-04T10:47:08;94477.66;;;10.01;100.00
12077;BME280;12420;42.676;23.262;2023-03-04T10:49:49;94400.41;;;9.44;100.00
12077;BME280;12420;42.676;23.262;2023-03-04T10:52:25;94475.00;;;9.95;100.00
12077;BME280;12420;42.676;23.262;2023-03-04T10:54:56;94443.66;;;9.74;100.00
12077;BME280;12420;42.676;23.262;2023-03-04T10:57:29;94467.13;;;9.99;100.00
12077;BME280;12420;42.676;23.262;2023-03-04T10:59:59;94459.09;;;9.83;100.00
12077;BME280;12420;42.676;23.262;2023-03-04T11:02:28;94460.56;;;10.03;100.00
12077;BME280;12420;42.676;23.262;2023-03-04T11:05:04;94446.50;;;10.00;100.00
12077;BME280;12420;42.676;23.262;2023-03-04T11:07:38;94461.91;;;9.96;100.00
12077;BME280;12420;42.676;23.262;2023-03-04T11:10:10;94358.66;;;8.97;100.00
12077;BME280;12420;42.676;23.262;2023-03-04T11:12:40;94417.31;;;9.54;100.00
12077;BME280;12420;42.676;23.262;2023-03-04T11:15:17;94444.94;;;9.73;100.00
12077;BME280;12420;42.676;23.262;2023-03-04T11:17:47;94364.72;;;9.27;100.00
12077;BME280;12420;42.676;23.262;2023-03-04T11:20:24;94369.13;;;9.36;100.00
12077;BME280;12420;42.676;23.262;2023-03-04T11:22:56;94389.84;;;9.62;100.00
12077;BME280;12420;42.676;23.262;2023-03-04T11:25:25;94319.97;;;9.16;100.00
12077;BME280;12420;42.676;23.262;2023-03-04T11:27:54;94431.84;;;10.06;100.00
12077;BME280;12420;42.676;23.262;2023-03-04T11:30:32;94419.50;;;10.07;100.00
12077;BME280;12420;42.676;23.262;2023-03-04T11:33:09;94413.44;;;9.63;100.00
12077;BME280;12420;42.676;23.262;2023-03-04T11:35:44;94411.41;;;9.95;100.00
12077;BME280;12420;42.676;23.262;2023-03-04T11:38:17;94408.75;;;10.03;100.00
12077;BME280;12420;42.676;23.262;2023-03-04T11:40:47;94330.09;;;9.59;100.00
12077;BME280;12420;42.676;23.262;2023-03-04T11:43:18;94369.78;;;9.74;100.00
12077;BME280;12420;42.676;23.262;2023-03-04T11:46:08;94400.34;;;9.95;100.00
12077;BME280;12420;42.676;23.262;2023-03-04T11:48:48;94388.19;;;9.85;100.00
12077;BME280;12420;42.676;23.262;2023-03-04T11:51:22;94395.91;;;10.19;100.00
12077;BME280;12420;42.676;23.262;2023-03-04T11:54:10;94404.22;;;10.19;100.00
12077;BME280;12420;42.676;23.262;2023-03-04T11:56:44;94395.44;;;10.34;100.00
12077;BME280;12420;42.676;23.262;2023-03-04T11:59:29;94387.09;;;10.20;100.00
12077;BME280;12420;42.676;23.262;2023-03-04T12:02:11;94396.38;;;10.36;100.00
12077;BME280;12420;42.676;23.262;2023-03-04T12:05:04;94400.31;;;10.41;100.00
12077;BME280;12420;42.676;23.262;2023-03-04T12:08:13;94372.56;;;10.47;100.00
12077;BME280;12420;42.676;23.262;2023-03-04T12:10:50;94348.91;;;10.19;100.00
12077;BME280;12420;42.676;23.262;2023-03-04T12:16:29;94374.41;;;10.12;100.00
12077;BME280;12420;42.676;23.262;2023-03-04T12:19:07;94371.25;;;10.34;100.00
12077;BME280;12420;42.676;23.262;2023-03-04T12:21:58;94367.75;;;10.34;100.00
12077;BME280;12420;42.676;23.262;2023-03-04T12:24:46;94358.03;;;10.27;100.00
12077;BME280;12420;42.676;23.262;2023-03-04T12:27:26;94364.66;;;10.37;100.00
12077;BME280;12420;42.676;23.262;2023-03-04T12:29:57;94369.38;;;10.56;100.00
12077;BME280;12420;42.676;23.262;2023-03-04T12:32:35;94357.53;;;10.69;100.00
12077;BME280;12420;42.676;23.262;2023-03-04T12:35:18;94322.09;;;10.40;100.00
12077;BME280;12420;42.676;23.262;2023-03-04T12:38:13;94353.69;;;10.72;100.00
12077;BME280;12420;42.676;23.262;2023-03-04T12:40:48;94336.03;;;10.35;100.00
12077;BME280;12420;42.676;23.262;2023-03-04T12:43:35;94246.56;;;9.66;100.00
12077;BME280;12420;42.676;23.262;2023-03-04T12:46:20;94313.19;;;10.34;100.00
12077;BME280;12420;42.676;23.262;2023-03-04T12:48:59;94344.66;;;10.71;100.00
12077;BME280;12420;42.676;23.262;2023-03-04T12:51:33;94317.00;;;10.45;100.00
12077;BME280;12420;42.676;23.262;2023-03-04T12:54:13;94367.31;;;10.70;100.00
12077;BME280;12420;42.676;23.262;2023-03-04T12:56:49;94322.81;;;10.68;100.00
12077;BME280;12420;42.676;23.262;2023-03-04T12:59:20;94286.34;;;10.42;100.00
12077;BME280;12420;42.676;23.262;2023-03-04T13:01:54;94325.47;;;10.73;100.00
12077;BME280;12420;42.676;23.262;2023-03-04T13:04:28;94292.22;;;10.39;100.00